sensor_id;sensor_type;location;lat;lon;timestamp;temperature;humidity
36212;DHT22;22247;48.586;13.492;2022-12-20T00:01:21;-3.80;99.90
36212;DHT22;22247;48.586;13.492;2022-12-20T00:03:49;-2.90;99.90
36212;DHT22;22247;48.586;13.492;2022-12-20T00:06:18;-3.00;99.90
36212;DHT22;22247;48.586;13.492;2022-12-20T00:08:44;-2.90;99.90
36212;DHT22;22247;48.586;13.492;2022-12-20T00:13:36;-3.00;99.90
36212;DHT22;22247;48.586;13.492;2022-12-20T00:16:16;-2.90;99.90
36212;DHT22;22247;48.586;13.492;2022-12-20T00:18:43;-2.70;99.90
36212;DHT22;22247;48.586;13.492;2022-12-20T00:21:11;-2.80;99.90
36212;DHT22;22247;48.586;13.492;2022-12-20T00:23:40;-2.90;99.90
36212;DHT22;22247;48.586;13.492;2022-12-20T00:26:12;-2.90;99.90
36212;DHT22;22247;48.586;13.492;2022-12-20T00:28:38;-2.90;99.90
36212;DHT22;22247;48.586;13.492;2022-12-20T00:31:10;-2.80;99.90
36212;DHT22;22247;48.586;13.492;2022-12-20T00:33:39;-2.90;99.90
36212;DHT22;22247;48.586;13.492;2022-12-20T00:36:06;-2.90;99.90
36212;DHT22;22247;48.586;13.492;2022-12-20T00:38:35;-2.80;99.90
36212;DHT22;22247;48.586;13.492;2022-12-20T00:43:27;-2.90;99.90
36212;DHT22;22247;48.586;13.492;2022-12-20T00:45:53;-2.70;99.90
36212;DHT22;22247;48.586;13.492;2022-12-20T00:50:49;-2.80;99.90
36212;DHT22;22247;48.586;13.492;2022-12-20T00:55:44;-2.70;99.90
36212;DHT22;22247;48.586;13.492;2022-12-20T00:58:13;-2.50;99.90
36212;DHT22;22247;48.586;13.492;2022-12-20T01:00:43;-2.70;99.90
36212;DHT22;22247;48.586;13.492;2022-12-20T01:03:11;-2.50;99.90
36212;DHT22;22247;48.586;13.492;2022-12-20T01:05:38;-2.80;99.90
36212;DHT22;22247;48.586;13.492;2022-12-20T01:08:05;-2.90;99.90
36212;DHT22;22247;48.586;13.492;2022-12-20T01:10:35;-2.50;99.90
36212;DHT22;22247;48.586;13.492;2022-12-20T01:15:29;-2.90;99.90
36212;DHT22;22247;48.586;13.492;2022-12-20T01:17:55;-2.80;99.90
36212;DHT22;22247;48.586;13.492;2022-12-20T01:20:24;-2.60;99.90
36212;DHT22;22247;48.586;13.492;2022-12-20T01:27:44;-3.20;99.90
36212;DHT22;22247;48.586;13.492;2022-12-20T01:32:39;-2.90;99.90
36212;DHT22;22247;48.586;13.492;2022-12-20T01:35:05;-2.90;99.90
36212;DHT22;22247;48.586;13.492;2022-12-20T01:45:01;-2.40;99.90
36212;DHT22;22247;48.586;13.492;2022-12-20T01:47:30;-2.40;99.90
36212;DHT22;22247;48.586;13.492;2022-12-20T01:50:02;-2.70;99.90
36212;DHT22;22247;48.586;13.492;2022-12-20T01:52:33;-2.70;99.90
36212;DHT22;22247;48.586;13.492;2022-12-20T01:55:16;-2.60;99.90
36212;DHT22;22247;48.586;13.492;2022-12-20T01:58:11;-2.50;99.90
36212;DHT22;22247;48.586;13.492;2022-12-20T02:00:39;-2.70;99.90
36212;DHT22;22247;48.586;13.492;2022-12-20T02:03:09;-2.50;99.90
36212;DHT22;22247;48.586;13.492;2022-12-20T02:05:43;-2.70;99.90
36212;DHT22;22247;48.586;13.492;2022-12-20T02:08:14;-2.70;99.90
36212;DHT22;22247;48.586;13.492;2022-12-20T02:11:23;-2.80;99.90
36212;DHT22;22247;48.586;13.492;2022-12-20T02:14:11;-3.60;99.90
36212;DHT22;22247;48.586;13.492;2022-12-20T02:16:49;-2.80;99.90
36212;DHT22;22247;48.586;13.492;2022-12-20T02:27:59;-2.50;99.90
36212;DHT22;22247;48.586;13.492;2022-12-20T02:30:31;-2.10;99.90
36212;DHT22;22247;48.586;13.492;2022-12-20T02:33:07;-2.80;99.90
36212;DHT22;22247;48.586;13.492;2022-12-20T02:35:39;-2.70;99.90
36212;DHT22;22247;48.586;13.492;2022-12-20T02:41:00;-2.70;99.90
36212;DHT22;22247;48.586;13.492;2022-12-20T02:43:29;-2.70;99.90
36212;DHT22;22247;48.586;13.492;2022-12-20T02:46:15;-2.70;99.90
36212;DHT22;22247;48.586;13.492;2022-12-20T02:48:43;-2.10;99.90
36212;DHT22;22247;48.586;13.492;2022-12-20T02:51:15;-2.70;99.90
36212;DHT22;22247;48.586;13.492;2022-12-20T02:56:13;-2.80;99.90
36212;DHT22;22247;48.586;13.492;2022-12-20T02:58:48;-2.80;99.90
36212;DHT22;22247;48.586;13.492;2022-12-20T03:01:25;-3.00;99.90
36212;DHT22;22247;48.586;13.492;2022-12-20T03:03:57;-2.70;99.90
36212;DHT22;22247;48.586;13.492;2022-12-20T03:08:51;-2.80;99.90
36212;DHT22;22247;48.586;13.492;2022-12-20T03:11:19;-3.00;99.90
36212;DHT22;22247;48.586;13.492;2022-12-20T03:21:05;-2.60;99.90
36212;DHT22;22247;48.586;13.492;2022-12-20T03:23:31;-3.10;99.90
36212;DHT22;22247;48.586;13.492;2022-12-20T03:25:59;-2.30;99.90
36212;DHT22;22247;48.586;13.492;2022-12-20T03:28:28;-2.50;99.90
36212;DHT22;22247;48.586;13.492;2022-12-20T03:43:10;-2.50;99.90
36212;DHT22;22247;48.586;13.492;2022-12-20T03:48:07;-2.20;99.90
36212;DHT22;22247;48.586;13.492;2022-12-20T03:50:37;-2.20;99.90
36212;DHT22;22247;48.586;13.492;2022-12-20T03:55:34;-1.90;99.90
36212;DHT22;22247;48.586;13.492;2022-12-20T03:58:04;-1.80;99.90
36212;DHT22;22247;48.586;13.492;2022-12-20T04:00:32;-0.60;99.90
36212;DHT22;22247;48.586;13.492;2022-12-20T04:02:58;-2.60;99.90
36212;DHT22;22247;48.586;13.492;2022-12-20T04:07:52;-2.00;99.90
36212;DHT22;22247;48.586;13.492;2022-12-20T04:10:17;-2.50;99.90
36212;DHT22;22247;48.586;13.492;2022-12-20T04:15:13;-2.10;99.90
36212;DHT22;22247;48.586;13.492;2022-12-20T04:20:06;-2.30;99.90
36212;DHT22;22247;48.586;13.492;2022-12-20T04:22:47;-2.20;99.90
36212;DHT22;22247;48.586;13.492;2022-12-20T04:25:14;-2.20;99.90
36212;DHT22;22247;48.586;13.492;2022-12-20T04:30:10;-2.50;99.90
36212;DHT22;22247;48.586;13.492;2022-12-20T04:32:38;-2.50;99.90
36212;DHT22;22247;48.586;13.492;2022-12-20T04:35:04;-2.60;99.90
36212;DHT22;22247;48.586;13.492;2022-12-20T04:37:31;-2.70;99.90
36212;DHT22;22247;48.586;13.492;2022-12-20T04:42:24;-2.60;99.90
36212;DHT22;22247;48.586;13.492;2022-12-20T04:44:50;-3.30;99.90
36212;DHT22;22247;48.586;13.492;2022-12-20T04:49:48;-2.60;99.90
36212;DHT22;22247;48.586;13.492;2022-12-20T04:54:59;-2.60;99.90
36212;DHT22;22247;48.586;13.492;2022-12-20T04:57:29;-2.60;99.90
36212;DHT22;22247;48.586;13.492;2022-12-20T05:02:25;-2.10;99.90
36212;DHT22;22247;48.586;13.492;2022-12-20T05:04:55;-2.10;99.90
36212;DHT22;22247;48.586;13.492;2022-12-20T05:07:25;-2.50;99.90
36212;DHT22;22247;48.586;13.492;2022-12-20T05:09:53;-2.30;99.90
36212;DHT22;22247;48.586;13.492;2022-12-20T05:17:13;-2.70;99.90
36212;DHT22;22247;48.586;13.492;2022-12-20T05:27:36;-1.90;99.90
36212;DHT22;22247;48.586;13.492;2022-12-20T05:30:02;-2.30;99.90
36212;DHT22;22247;48.586;13.492;2022-12-20T05:32:28;-2.20;99.90
36212;DHT22;22247;48.586;13.492;2022-12-20T05:39:51;-2.10;99.90
36212;DHT22;22247;48.586;13.492;2022-12-20T05:44:45;-2.00;99.90
36212;DHT22;22247;48.586;13.492;2022-12-20T05:47:15;-1.40;99.90
36212;DHT22;22247;48.586;13.492;2022-12-20T05:49:41;-2.20;99.90
36212;DHT22;22247;48.586;13.492;2022-12-20T05:54:35;-1.80;99.90
36212;DHT22;22247;48.586;13.492;2022-12-20T05:57:03;-1.90;99.90
36212;DHT22;22247;48.586;13.492;2022-12-20T06:01:54;-2.10;99.90
36212;DHT22;22247;48.586;13.492;2022-12-20T06:06:46;-2.20;99.90
36212;DHT22;22247;48.586;13.492;2022-12-20T06:14:06;-2.10;99.90
36212;DHT22;22247;48.586;13.492;2022-12-20T06:16:33;-1.90;99.90
36212;DHT22;22247;48.586;13.492;2022-12-20T06:19:02;-2.00;99.90
36212;DHT22;22247;48.586;13.492;2022-12-20T06:21:30;-2.20;99.90
36212;DHT22;22247;48.586;13.492;2022-12-20T06:23:56;-1.50;99.90
36212;DHT22;22247;48.586;13.492;2022-12-20T06:28:54;-2.00;99.90
36212;DHT22;22247;48.586;13.492;2022-12-20T06:38:44;-2.40;99.90
36212;DHT22;22247;48.586;13.492;2022-12-20T06:41:09;-2.70;99.90
36212;DHT22;22247;48.586;13.492;2022-12-20T06:50:53;-2.10;99.90
36212;DHT22;22247;48.586;13.492;2022-12-20T06:53:21;-1.90;99.90
36212;DHT22;22247;48.586;13.492;2022-12-20T06:55:49;-2.30;99.90
36212;DHT22;22247;48.586;13.492;2022-12-20T06:58:16;-2.40;99.90
36212;DHT22;22247;48.586;13.492;2022-12-20T07:10:37;-1.70;99.90
36212;DHT22;22247;48.586;13.492;2022-12-20T07:13:10;-1.70;99.90
36212;DHT22;22247;48.586;13.492;2022-12-20T07:15:36;-2.10;99.90
36212;DHT22;22247;48.586;13.492;2022-12-20T07:18:01;-1.90;99.90
36212;DHT22;22247;48.586;13.492;2022-12-20T07:20:29;-2.00;99.90
36212;DHT22;22247;48.586;13.492;2022-12-20T07:22:58;-2.30;99.90
36212;DHT22;22247;48.586;13.492;2022-12-20T07:25:25;-1.40;99.90
36212;DHT22;22247;48.586;13.492;2022-12-20T07:42:33;-0.90;99.90
36212;DHT22;22247;48.586;13.492;2022-12-20T07:45:04;-1.50;99.90
36212;DHT22;22247;48.586;13.492;2022-12-20T07:47:34;-1.10;99.90
36212;DHT22;22247;48.586;13.492;2022-12-20T07:50:03;-1.00;99.90
36212;DHT22;22247;48.586;13.492;2022-12-20T07:52:31;-1.30;99.90
36212;DHT22;22247;48.586;13.492;2022-12-20T07:55:00;-1.30;99.90
36212;DHT22;22247;48.586;13.492;2022-12-20T08:00:07;-0.80;99.90
36212;DHT22;22247;48.586;13.492;2022-12-20T08:02:37;-1.10;99.90
36212;DHT22;22247;48.586;13.492;2022-12-20T08:05:07;-1.60;99.90
36212;DHT22;22247;48.586;13.492;2022-12-20T08:07:35;-1.00;99.90
36212;DHT22;22247;48.586;13.492;2022-12-20T08:10:04;-0.90;99.90
36212;DHT22;22247;48.586;13.492;2022-12-20T08:12:31;-0.90;99.90
36212;DHT22;22247;48.586;13.492;2022-12-20T08:17:29;-0.80;99.90
36212;DHT22;22247;48.586;13.492;2022-12-20T08:22:27;-0.60;99.90
36212;DHT22;22247;48.586;13.492;2022-12-20T08:29:47;-0.10;99.90
36212;DHT22;22247;48.586;13.492;2022-12-20T08:34:41;-0.60;99.90
36212;DHT22;22247;48.586;13.492;2022-12-20T08:37:07;-0.20;99.90
36212;DHT22;22247;48.586;13.492;2022-12-20T08:49:18;-0.30;99.90
36212;DHT22;22247;48.586;13.492;2022-12-20T08:54:17;-0.30;99.90
36212;DHT22;22247;48.586;13.492;2022-12-20T08:56:42;-0.50;99.90
36212;DHT22;22247;48.586;13.492;2022-12-20T08:59:12;-0.50;99.90
36212;DHT22;22247;48.586;13.492;2022-12-20T09:01:40;-0.70;99.90
36212;DHT22;22247;48.586;13.492;2022-12-20T09:04:06;-0.40;99.90
36212;DHT22;22247;48.586;13.492;2022-12-20T09:06:34;-0.30;99.90
36212;DHT22;22247;48.586;13.492;2022-12-20T09:09:00;0.60;99.90
36212;DHT22;22247;48.586;13.492;2022-12-20T09:11:28;0.20;99.90
36212;DHT22;22247;48.586;13.492;2022-12-20T09:16:28;0.00;99.90
36212;DHT22;22247;48.586;13.492;2022-12-20T09:18:55;-0.20;99.90
36212;DHT22;22247;48.586;13.492;2022-12-20T09:21:21;0.00;99.90
36212;DHT22;22247;48.586;13.492;2022-12-20T09:23:49;0.10;99.90
36212;DHT22;22247;48.586;13.492;2022-12-20T09:26:19;-0.10;99.90
36212;DHT22;22247;48.586;13.492;2022-12-20T09:28:52;0.10;99.90
36212;DHT22;22247;48.586;13.492;2022-12-20T09:31:24;0.20;99.90
36212;DHT22;22247;48.586;13.492;2022-12-20T09:33:53;0.70;99.90
36212;DHT22;22247;48.586;13.492;2022-12-20T09:36:23;0.40;99.90
36212;DHT22;22247;48.586;13.492;2022-12-20T09:38:56;0.10;99.90
36212;DHT22;22247;48.586;13.492;2022-12-20T09:46:58;-0.40;99.90
36212;DHT22;22247;48.586;13.492;2022-12-20T09:49:32;-0.50;99.90
36212;DHT22;22247;48.586;13.492;2022-12-20T10:00:19;-0.30;99.90
36212;DHT22;22247;48.586;13.492;2022-12-20T10:02:47;0.20;99.90
36212;DHT22;22247;48.586;13.492;2022-12-20T10:05:52;0.30;99.90
36212;DHT22;22247;48.586;13.492;2022-12-20T10:18:55;1.30;99.90
36212;DHT22;22247;48.586;13.492;2022-12-20T10:21:54;1.00;99.90
36212;DHT22;22247;48.586;13.492;2022-12-20T10:27:15;1.50;99.90
36212;DHT22;22247;48.586;13.492;2022-12-20T10:29:42;1.50;99.90
36212;DHT22;22247;48.586;13.492;2022-12-20T10:32:14;1.00;99.90
36212;DHT22;22247;48.586;13.492;2022-12-20T10:39:47;1.10;99.90
36212;DHT22;22247;48.586;13.492;2022-12-20T10:42:39;0.90;99.90
36212;DHT22;22247;48.586;13.492;2022-12-20T10:48:00;1.60;99.90
36212;DHT22;22247;48.586;13.492;2022-12-20T10:55:41;1.40;99.90
36212;DHT22;22247;48.586;13.492;2022-12-20T11:00:45;1.40;99.90
36212;DHT22;22247;48.586;13.492;2022-12-20T11:03:20;2.80;99.90
36212;DHT22;22247;48.586;13.492;2022-12-20T11:05:58;1.50;99.90
36212;DHT22;22247;48.586;13.492;2022-12-20T11:08:28;2.10;99.90
36212;DHT22;22247;48.586;13.492;2022-12-20T11:16:04;1.40;99.90
36212;DHT22;22247;48.586;13.492;2022-12-20T11:34:45;1.50;99.90
36212;DHT22;22247;48.586;13.492;2022-12-20T11:37:18;1.80;99.90
36212;DHT22;22247;48.586;13.492;2022-12-20T11:56:01;2.40;99.90
36212;DHT22;22247;48.586;13.492;2022-12-20T12:01:30;1.80;99.90
36212;DHT22;22247;48.586;13.492;2022-12-20T12:04:29;1.80;99.90
36212;DHT22;22247;48.586;13.492;2022-12-20T12:07:01;1.80;99.90
36212;DHT22;22247;48.586;13.492;2022-12-20T12:12:39;1.80;99.90
36212;DHT22;22247;48.586;13.492;2022-12-20T12:17:48;2.10;99.90
36212;DHT22;22247;48.586;13.492;2022-12-20T12:20:35;1.60;99.90
36212;DHT22;22247;48.586;13.492;2022-12-20T12:25:48;1.60;99.90
36212;DHT22;22247;48.586;13.492;2022-12-20T12:28:15;1.90;99.90
36212;DHT22;22247;48.586;13.492;2022-12-20T12:30:54;1.90;99.90
36212;DHT22;22247;48.586;13.492;2022-12-20T12:33:31;1.70;99.90
36212;DHT22;22247;48.586;13.492;2022-12-20T12:38:52;1.60;99.90
36212;DHT22;22247;48.586;13.492;2022-12-20T12:41:28;1.60;99.90
36212;DHT22;22247;48.586;13.492;2022-12-20T12:46:47;1.60;99.90
36212;DHT22;22247;48.586;13.492;2022-12-20T12:49:19;1.70;99.90
36212;DHT22;22247;48.586;13.492;2022-12-20T12:51:52;2.00;99.90
36212;DHT22;22247;48.586;13.492;2022-12-20T12:57:14;2.20;99.90
36212;DHT22;22247;48.586;13.492;2022-12-20T12:59:48;1.50;99.90
36212;DHT22;22247;48.586;13.492;2022-12-20T13:07:46;1.30;99.90
36212;DHT22;22247;48.586;13.492;2022-12-20T13:17:59;1.20;99.90
36212;DHT22;22247;48.586;13.492;2022-12-20T13:20:27;1.40;99.90
36212;DHT22;22247;48.586;13.492;2022-12-20T13:33:42;1.20;99.90
36212;DHT22;22247;48.586;13.492;2022-12-20T13:43:56;1.50;99.90
36212;DHT22;22247;48.586;13.492;2022-12-20T13:46:57;1.40;99.90
36212;DHT22;22247;48.586;13.492;2022-12-20T13:54:44;1.60;99.90
36212;DHT22;22247;48.586;13.492;2022-12-20T13:57:16;1.20;99.90
36212;DHT22;22247;48.586;13.492;2022-12-20T13:59:48;0.50;99.90
36212;DHT22;22247;48.586;13.492;2022-12-20T14:02:22;1.20;99.90
36212;DHT22;22247;48.586;13.492;2022-12-20T14:04:58;1.00;99.90
36212;DHT22;22247;48.586;13.492;2022-12-20T14:07:31;1.10;99.90
36212;DHT22;22247;48.586;13.492;2022-12-20T14:10:00;0.80;99.90
36212;DHT22;22247;48.586;13.492;2022-12-20T14:12:29;0.80;99.90
36212;DHT22;22247;48.586;13.492;2022-12-20T14:14:56;0.90;99.90
36212;DHT22;22247;48.586;13.492;2022-12-20T14:22:41;0.40;99.90
36212;DHT22;22247;48.586;13.492;2022-12-20T14:25:15;0.50;99.90
36212;DHT22;22247;48.586;13.492;2022-12-20T14:27:46;0.90;99.90
36212;DHT22;22247;48.586;13.492;2022-12-20T14:30:33;0.70;99.90
36212;DHT22;22247;48.586;13.492;2022-12-20T14:33:02;0.40;99.90
36212;DHT22;22247;48.586;13.492;2022-12-20T14:35:28;0.00;99.90
36212;DHT22;22247;48.586;13.492;2022-12-20T14:37:58;-0.20;99.90
36212;DHT22;22247;48.586;13.492;2022-12-20T14:40:25;0.20;99.90
36212;DHT22;22247;48.586;13.492;2022-12-20T14:45:26;-0.40;99.90
36212;DHT22;22247;48.586;13.492;2022-12-20T14:48:06;-0.30;99.90
36212;DHT22;22247;48.586;13.492;2022-12-20T14:50:39;-0.30;99.90
36212;DHT22;22247;48.586;13.492;2022-12-20T14:53:21;-0.30;99.90
36212;DHT22;22247;48.586;13.492;2022-12-20T14:55:49;-0.50;99.90
36212;DHT22;22247;48.586;13.492;2022-12-20T14:58:25;-0.50;99.90
36212;DHT22;22247;48.586;13.492;2022-12-20T15:05:56;-0.60;99.90
36212;DHT22;22247;48.586;13.492;2022-12-20T15:08:27;-1.00;99.90
36212;DHT22;22247;48.586;13.492;2022-12-20T15:11:21;-0.40;99.90
36212;DHT22;22247;48.586;13.492;2022-12-20T15:13:47;-0.70;99.90
36212;DHT22;22247;48.586;13.492;2022-12-20T15:18:52;-0.80;99.90
36212;DHT22;22247;48.586;13.492;2022-12-20T15:21:28;-1.00;99.90
36212;DHT22;22247;48.586;13.492;2022-12-20T15:23:59;-1.40;99.90
36212;DHT22;22247;48.586;13.492;2022-12-20T15:26:32;-1.00;99.90
36212;DHT22;22247;48.586;13.492;2022-12-20T15:31:27;-1.10;99.90
36212;DHT22;22247;48.586;13.492;2022-12-20T15:33:53;-1.00;99.90
36212;DHT22;22247;48.586;13.492;2022-12-20T15:36:23;-1.10;99.90
36212;DHT22;22247;48.586;13.492;2022-12-20T15:38:52;-1.10;99.90
36212;DHT22;22247;48.586;13.492;2022-12-20T15:41:32;-0.90;99.90
36212;DHT22;22247;48.586;13.492;2022-12-20T15:44:05;-1.00;99.90
36212;DHT22;22247;48.586;13.492;2022-12-20T15:46:36;-1.00;99.90
36212;DHT22;22247;48.586;13.492;2022-12-20T15:49:04;-0.50;99.90
36212;DHT22;22247;48.586;13.492;2022-12-20T15:51:37;-0.80;99.90
36212;DHT22;22247;48.586;13.492;2022-12-20T15:56:43;-0.40;99.90
36212;DHT22;22247;48.586;13.492;2022-12-20T15:59:11;-0.30;99.90
36212;DHT22;22247;48.586;13.492;2022-12-20T16:01:37;-0.50;99.90
36212;DHT22;22247;48.586;13.492;2022-12-20T16:04:04;0.10;99.90
36212;DHT22;22247;48.586;13.492;2022-12-20T16:06:31;-0.20;99.90
36212;DHT22;22247;48.586;13.492;2022-12-20T16:08:57;0.00;99.90
36212;DHT22;22247;48.586;13.492;2022-12-20T16:11:26;0.00;99.90
36212;DHT22;22247;48.586;13.492;2022-12-20T16:13:55;-0.20;99.90
36212;DHT22;22247;48.586;13.492;2022-12-20T16:16:24;0.10;99.90
36212;DHT22;22247;48.586;13.492;2022-12-20T16:18:50;-0.10;99.90
36212;DHT22;22247;48.586;13.492;2022-12-20T16:21:23;-0.10;99.90
36212;DHT22;22247;48.586;13.492;2022-12-20T16:23:52;-0.20;99.90
36212;DHT22;22247;48.586;13.492;2022-12-20T16:26:22;-0.20;99.90
36212;DHT22;22247;48.586;13.492;2022-12-20T16:28:52;0.10;99.90
36212;DHT22;22247;48.586;13.492;2022-12-20T16:31:36;0.30;99.90
36212;DHT22;22247;48.586;13.492;2022-12-20T16:34:09;-0.40;99.90
36212;DHT22;22247;48.586;13.492;2022-12-20T16:36:38;-0.30;99.90
36212;DHT22;22247;48.586;13.492;2022-12-20T16:41:37;-0.30;99.90
36212;DHT22;22247;48.586;13.492;2022-12-20T16:46:35;0.20;99.90
36212;DHT22;22247;48.586;13.492;2022-12-20T16:49:05;0.00;99.90
36212;DHT22;22247;48.586;13.492;2022-12-20T16:51:43;0.00;99.90
36212;DHT22;22247;48.586;13.492;2022-12-20T16:54:19;0.00;99.90
36212;DHT22;22247;48.586;13.492;2022-12-20T16:56:45;0.00;99.90
36212;DHT22;22247;48.586;13.492;2022-12-20T16:59:12;-0.10;99.90
36212;DHT22;22247;48.586;13.492;2022-12-20T17:01:43;0.20;99.90
36212;DHT22;22247;48.586;13.492;2022-12-20T17:04:12;0.00;99.90
36212;DHT22;22247;48.586;13.492;2022-12-20T17:06:41;0.00;99.90
36212;DHT22;22247;48.586;13.492;2022-12-20T17:11:33;-0.30;99.90
36212;DHT22;22247;48.586;13.492;2022-12-20T17:16:27;0.80;99.90
36212;DHT22;22247;48.586;13.492;2022-12-20T17:18:54;-0.30;99.90
36212;DHT22;22247;48.586;13.492;2022-12-20T17:26:24;-0.40;99.90
36212;DHT22;22247;48.586;13.492;2022-12-20T17:28:51;-0.20;99.90
36212;DHT22;22247;48.586;13.492;2022-12-20T17:36:18;-0.20;99.90
36212;DHT22;22247;48.586;13.492;2022-12-20T17:41:32;-0.40;99.90
36212;DHT22;22247;48.586;13.492;2022-12-20T17:43:59;-0.50;99.90
36212;DHT22;22247;48.586;13.492;2022-12-20T17:48:54;-0.50;99.90
36212;DHT22;22247;48.586;13.492;2022-12-20T17:51:29;-0.60;99.90
36212;DHT22;22247;48.586;13.492;2022-12-20T17:53:56;-0.60;99.90
36212;DHT22;22247;48.586;13.492;2022-12-20T17:56:31;-0.10;99.90
36212;DHT22;22247;48.586;13.492;2022-12-20T17:58:58;-0.80;99.90
36212;DHT22;22247;48.586;13.492;2022-12-20T18:03:56;-0.80;99.90
36212;DHT22;22247;48.586;13.492;2022-12-20T18:06:25;-0.10;99.90
36212;DHT22;22247;48.586;13.492;2022-12-20T18:08:53;-0.30;99.90
36212;DHT22;22247;48.586;13.492;2022-12-20T18:11:26;0.50;99.90
36212;DHT22;22247;48.586;13.492;2022-12-20T18:13:56;-0.10;99.90
36212;DHT22;22247;48.586;13.492;2022-12-20T18:16:29;0.20;99.90
36212;DHT22;22247;48.586;13.492;2022-12-20T18:18:56;-0.10;99.90
36212;DHT22;22247;48.586;13.492;2022-12-20T18:21:24;-0.10;99.90
36212;DHT22;22247;48.586;13.492;2022-12-20T18:23:54;0.00;99.90
36212;DHT22;22247;48.586;13.492;2022-12-20T18:28:53;-0.20;99.90
36212;DHT22;22247;48.586;13.492;2022-12-20T18:31:21;0.20;99.90
36212;DHT22;22247;48.586;13.492;2022-12-20T18:33:47;-0.10;99.90
36212;DHT22;22247;48.586;13.492;2022-12-20T18:36:15;-0.10;99.90
36212;DHT22;22247;48.586;13.492;2022-12-20T18:38:42;-0.30;99.90
36212;DHT22;22247;48.586;13.492;2022-12-20T18:41:15;-0.60;99.90
36212;DHT22;22247;48.586;13.492;2022-12-20T18:43:41;0.00;99.90
36212;DHT22;22247;48.586;13.492;2022-12-20T18:46:14;0.10;99.90
36212;DHT22;22247;48.586;13.492;2022-12-20T18:48:40;0.00;99.90
36212;DHT22;22247;48.586;13.492;2022-12-20T18:51:12;0.90;99.90
36212;DHT22;22247;48.586;13.492;2022-12-20T18:53:41;-0.50;99.90
36212;DHT22;22247;48.586;13.492;2022-12-20T18:56:10;0.00;99.90
36212;DHT22;22247;48.586;13.492;2022-12-20T18:58:38;0.10;99.90
36212;DHT22;22247;48.586;13.492;2022-12-20T19:01:09;0.00;99.90
36212;DHT22;22247;48.586;13.492;2022-12-20T19:08:32;0.30;99.90
36212;DHT22;22247;48.586;13.492;2022-12-20T19:11:04;-0.10;99.90
36212;DHT22;22247;48.586;13.492;2022-12-20T19:16:00;-0.10;99.90
36212;DHT22;22247;48.586;13.492;2022-12-20T19:18:28;0.00;99.90
36212;DHT22;22247;48.586;13.492;2022-12-20T19:21:06;0.30;99.90
36212;DHT22;22247;48.586;13.492;2022-12-20T19:23:32;-0.20;99.90
36212;DHT22;22247;48.586;13.492;2022-12-20T19:28:30;-0.90;99.90
36212;DHT22;22247;48.586;13.492;2022-12-20T19:30:57;0.00;99.90
36212;DHT22;22247;48.586;13.492;2022-12-20T19:35:49;-0.20;99.90
36212;DHT22;22247;48.586;13.492;2022-12-20T19:40:41;-0.10;99.90
36212;DHT22;22247;48.586;13.492;2022-12-20T19:45:38;-0.50;99.90
36212;DHT22;22247;48.586;13.492;2022-12-20T19:48:06;-0.60;99.90
36212;DHT22;22247;48.586;13.492;2022-12-20T19:50:34;-0.70;99.90
36212;DHT22;22247;48.586;13.492;2022-12-20T19:55:28;-0.80;99.90
36212;DHT22;22247;48.586;13.492;2022-12-20T20:00:20;-0.90;99.90
36212;DHT22;22247;48.586;13.492;2022-12-20T20:05:11;-1.30;99.90
36212;DHT22;22247;48.586;13.492;2022-12-20T20:12:31;-1.40;99.90
36212;DHT22;22247;48.586;13.492;2022-12-20T20:22:18;-1.50;99.90
36212;DHT22;22247;48.586;13.492;2022-12-20T20:34:28;-1.60;99.90
36212;DHT22;22247;48.586;13.492;2022-12-20T20:36:56;-1.60;99.90
36212;DHT22;22247;48.586;13.492;2022-12-20T20:39:24;-1.60;99.90
36212;DHT22;22247;48.586;13.492;2022-12-20T20:41:50;-1.50;99.90
36212;DHT22;22247;48.586;13.492;2022-12-20T20:44:17;-1.80;99.90
36212;DHT22;22247;48.586;13.492;2022-12-20T20:46:45;-2.10;99.90
36212;DHT22;22247;48.586;13.492;2022-12-20T20:51:44;-1.50;99.90
36212;DHT22;22247;48.586;13.492;2022-12-20T20:54:09;-1.60;99.90
36212;DHT22;22247;48.586;13.492;2022-12-20T21:01:29;-0.90;99.90
36212;DHT22;22247;48.586;13.492;2022-12-20T21:03:56;-1.00;99.90
36212;DHT22;22247;48.586;13.492;2022-12-20T21:08:52;-0.40;99.90
36212;DHT22;22247;48.586;13.492;2022-12-20T21:11:20;-0.90;99.90
36212;DHT22;22247;48.586;13.492;2022-12-20T21:16:14;-0.60;99.90
36212;DHT22;22247;48.586;13.492;2022-12-20T21:21:14;-1.00;99.90
36212;DHT22;22247;48.586;13.492;2022-12-20T21:23:43;-1.00;99.90
36212;DHT22;22247;48.586;13.492;2022-12-20T21:26:10;-0.50;99.90
36212;DHT22;22247;48.586;13.492;2022-12-20T21:31:04;-0.70;99.90
36212;DHT22;22247;48.586;13.492;2022-12-20T21:33:30;-0.60;99.90
36212;DHT22;22247;48.586;13.492;2022-12-20T21:36:04;-0.70;99.90
36212;DHT22;22247;48.586;13.492;2022-12-20T21:38:30;-0.50;99.90
36212;DHT22;22247;48.586;13.492;2022-12-20T21:41:04;-0.80;99.90
36212;DHT22;22247;48.586;13.492;2022-12-20T21:43:31;-0.70;99.90
36212;DHT22;22247;48.586;13.492;2022-12-20T21:45:59;-1.30;99.90
36212;DHT22;22247;48.586;13.492;2022-12-20T21:48:28;-1.20;99.90
36212;DHT22;22247;48.586;13.492;2022-12-20T21:51:04;-1.00;99.90
36212;DHT22;22247;48.586;13.492;2022-12-20T21:53:31;-0.80;99.90
36212;DHT22;22247;48.586;13.492;2022-12-20T21:55:58;-0.80;99.90
36212;DHT22;22247;48.586;13.492;2022-12-20T21:58:25;-1.00;99.90
36212;DHT22;22247;48.586;13.492;2022-12-20T22:00:55;-0.80;99.90
36212;DHT22;22247;48.586;13.492;2022-12-20T22:03:21;-0.70;99.90
36212;DHT22;22247;48.586;13.492;2022-12-20T22:05:48;-1.10;99.90
36212;DHT22;22247;48.586;13.492;2022-12-20T22:08:19;-0.40;99.90
36212;DHT22;22247;48.586;13.492;2022-12-20T22:10:47;-0.80;99.90
36212;DHT22;22247;48.586;13.492;2022-12-20T22:13:21;-0.90;99.90
36212;DHT22;22247;48.586;13.492;2022-12-20T22:20:43;-0.90;99.90
36212;DHT22;22247;48.586;13.492;2022-12-20T22:23:09;-0.90;99.90
36212;DHT22;22247;48.586;13.492;2022-12-20T22:25:37;-1.00;99.90
36212;DHT22;22247;48.586;13.492;2022-12-20T22:28:06;-0.90;99.90
36212;DHT22;22247;48.586;13.492;2022-12-20T22:30:32;-0.90;99.90
36212;DHT22;22247;48.586;13.492;2022-12-20T22:35:27;-0.90;99.90
36212;DHT22;22247;48.586;13.492;2022-12-20T22:37:55;-0.70;99.90
36212;DHT22;22247;48.586;13.492;2022-12-20T22:42:49;-1.10;99.90
36212;DHT22;22247;48.586;13.492;2022-12-20T22:47:40;-1.10;99.90
36212;DHT22;22247;48.586;13.492;2022-12-20T22:50:09;-1.30;99.90
36212;DHT22;22247;48.586;13.492;2022-12-20T22:52:35;-0.90;99.90
36212;DHT22;22247;48.586;13.492;2022-12-20T22:55:00;-1.20;99.90
36212;DHT22;22247;48.586;13.492;2022-12-20T23:02:24;-1.20;99.90
36212;DHT22;22247;48.586;13.492;2022-12-20T23:07:17;-1.10;99.90
36212;DHT22;22247;48.586;13.492;2022-12-20T23:12:13;-0.90;99.90
36212;DHT22;22247;48.586;13.492;2022-12-20T23:14:59;-0.70;99.90
36212;DHT22;22247;48.586;13.492;2022-12-20T23:17:44;-0.90;99.90
36212;DHT22;22247;48.586;13.492;2022-12-20T23:22:56;-1.00;99.90
36212;DHT22;22247;48.586;13.492;2022-12-20T23:27:49;-0.90;99.90